Peterborough, Canada
Current Conditions -  °F | °C
As of 8:00 AM on Thursday 27 Nov 2014 (Local Time) from CYPQ Reporting Station
Overcast Overcast  
Wind Chill: 21°   Ceiling: 17000
Heat Index: 21°   Visibility: 9mi
Dew Point: 19°   Wind: 2mph
Humidity: 93%   Direction: 350°N
Pressure: 30.06"   Gusts: NA
Location:  44.3°N, 78.32°W
Report Text: CYPQ 271300Z AUTO 35002KT 9SM FEW075 BKN170 OVC200 M06/M07 A3006 RMK SLP188
Loading
Personal Weather Stations






























Interactive Weather Map New forecast layout! Learn more

10-Day Weather Forecast

Advertisements
Track Severe Weather on mobile